Time;durP1;ratioP1;P1;durP2;ratioP2;P2;SDS_P1;SDS_P2;PMS_P1;PMS_P2;Temp;Humidity;BMP_temperature;BMP_pressure;BME280_temperature;BME280_humidity;BME280_pressure;Samples;Min_cycle;Max_cycle;Signal;HPM_P1;HPM_P2
2021/08/17 00:00:15;;;;;;;6.18;3.72;;;;;;;21.53;66.34;99189.47;4348431;32;34070;-89
2021/08/17 00:02:43;;;;;;;5.90;3.35;;;;;;;21.48;66.13;99186.22;4361975;32;34814;-88
2021/08/17 00:05:11;;;;;;;6.18;4.25;;;;;;;21.40;65.34;99183.13;4348744;32;34127;-88
2021/08/17 00:07:38;;;;;;;6.90;3.67;;;;;;;21.30;66.19;99166.06;4348569;32;33900;-87
2021/08/17 00:10:07;;;;;;;9.25;4.12;;;;;;;21.21;66.42;99166.53;4348522;32;34703;-87
2021/08/17 00:12:34;;;;;;;6.32;4.20;;;;;;;21.27;65.74;99175.00;4348331;32;33409;-87
2021/08/17 00:15:04;;;;;;;6.22;3.85;;;;;;;21.11;66.69;99170.63;4348402;32;33632;-88
2021/08/17 00:17:32;;;;;;;6.93;3.90;;;;;;;21.05;66.43;99176.22;4348786;32;33602;-87
2021/08/17 00:19:59;;;;;;;6.72;4.15;;;;;;;21.03;65.92;99180.69;4362173;32;35560;-89
2021/08/17 00:22:27;;;;;;;6.75;4.25;;;;;;;20.98;65.71;99182.72;4348587;32;33812;-87
2021/08/17 00:24:55;;;;;;;8.07;3.78;;;;;;;20.94;66.53;99182.88;4348476;32;33695;-91
2021/08/17 00:27:22;;;;;;;7.28;4.03;;;;;;;20.37;67.17;99192.91;4336402;32;33861;-87
2021/08/17 00:29:51;;;;;;;7.50;4.35;;;;;;;20.62;66.35;99199.53;4360454;32;34545;-89
2021/08/17 00:32:19;;;;;;;6.90;4.40;;;;;;;20.51;67.32;99201.84;4348462;32;34264;-89
2021/08/17 00:34:46;;;;;;;7.78;3.90;;;;;;;20.43;67.10;99214.56;4335889;32;33755;-90
2021/08/17 00:37:15;;;;;;;9.80;4.65;;;;;;;20.38;66.66;99215.72;4348045;32;33204;-89
2021/08/17 00:39:43;;;;;;;6.72;4.20;;;;;;;20.62;66.87;99219.81;4361373;32;34592;-88
2021/08/17 00:42:10;;;;;;;7.30;4.10;;;;;;;20.68;65.77;99222.16;4348326;32;34911;-88
2021/08/17 00:44:38;;;;;;;7.37;4.47;;;;;;;20.76;65.57;99227.88;4360293;32;33422;-89
2021/08/17 00:47:06;;;;;;;11.90;4.68;;;;;;;20.82;65.58;99239.00;4360297;32;34669;-86
2021/08/17 00:49:33;;;;;;;10.82;4.43;;;;;;;20.59;65.87;99257.78;4348006;32;35703;-87
2021/08/17 00:52:08;;;;;;;7.72;5.07;;;;;;;20.45;66.06;99306.94;4360072;32;34198;-88
2021/08/17 00:54:37;;;;;;;9.82;5.05;;;;;;;20.20;68.32;99323.06;4360070;32;33779;-86
2021/08/17 00:57:05;;;;;;;10.60;5.55;;;;;;;20.45;66.94;99317.50;4347977;32;34064;-87
2021/08/17 00:59:33;;;;;;;7.97;4.78;;;;;;;20.30;68.88;99300.59;4360218;32;34574;-87
2021/08/17 01:02:02;;;;;;;8.68;5.22;;;;;;;20.48;68.85;99275.97;4349377;32;33483;-86
2021/08/17 01:04:29;;;;;;;8.23;4.82;;;;;;;20.56;68.18;99255.28;4349680;32;33596;-85
2021/08/17 01:06:57;;;;;;;7.55;4.62;;;;;;;20.56;67.96;99260.56;4363303;32;33941;-86
2021/08/17 01:09:25;;;;;;;6.82;4.70;;;;;;;20.44;67.26;99273.53;4349662;32;34040;-86
2021/08/17 01:11:53;;;;;;;7.75;4.65;;;;;;;20.37;68.22;99294.13;4363062;32;34786;-86
2021/08/17 01:14:20;;;;;;;8.07;4.53;;;;;;;20.64;67.04;99282.19;4349753;32;33535;-85
2021/08/17 01:16:49;;;;;;;8.20;4.75;;;;;;;20.81;67.11;99281.38;4349770;32;34112;-86
2021/08/17 01:19:19;;;;;;;10.45;5.30;;;;;;;20.81;66.65;99269.03;4349626;32;34836;-92
2021/08/17 01:21:48;;;;;;;7.45;4.62;;;;;;;20.75;65.92;99271.94;4362105;32;34249;-86
2021/08/17 01:24:16;;;;;;;9.20;4.80;;;;;;;20.59;67.42;99255.16;4361960;32;34182;-88
2021/08/17 01:26:44;;;;;;;9.20;4.37;;;;;;;20.75;65.58;99248.16;4349748;32;33976;-87
2021/08/17 01:29:15;;;;;;;7.80;4.97;;;;;;;20.71;65.79;99225.47;4363085;32;34629;-88
2021/08/17 01:31:43;;;;;;;9.10;4.93;;;;;;;20.56;66.73;99214.84;4350009;32;33969;-87
2021/08/17 01:34:10;;;;;;;7.15;4.30;;;;;;;20.30;67.65;99207.34;4362234;32;33362;-87
2021/08/17 01:36:38;;;;;;;7.70;4.95;;;;;;;20.43;67.91;99182.88;4361984;32;33698;-86
2021/08/17 01:39:06;;;;;;;7.95;4.53;;;;;;;20.45;67.02;99173.09;4349700;32;34642;-87
2021/08/17 01:41:33;;;;;;;7.93;4.32;;;;;;;20.45;68.09;99165.16;4361856;32;35039;-87
2021/08/17 01:44:12;;;;;;;8.07;4.90;;;;;;;20.64;66.60;99170.37;4349691;32;33529;-86
2021/08/17 01:46:44;;;;;;;6.78;4.80;;;;;;;20.66;66.28;99168.50;4349676;32;34705;-86
2021/08/17 01:49:15;;;;;;;12.57;4.60;;;;;;;20.88;65.28;99158.53;4350011;32;34395;-86
2021/08/17 01:51:44;;;;;;;7.25;4.45;;;;;;;20.59;66.10;99152.12;4349535;32;34168;-86
2021/08/17 01:54:14;;;;;;;9.02;4.55;;;;;;;20.83;66.24;99145.56;4349536;32;34281;-87
2021/08/17 01:56:42;;;;;;;8.45;4.20;;;;;;;20.85;65.78;99148.97;4349514;32;34836;-87
2021/08/17 01:59:12;;;;;;;8.50;4.70;;;;;;;20.89;64.84;99155.81;4349445;32;34637;-88
2021/08/17 02:01:41;;;;;;;6.37;4.07;;;;;;;21.04;65.30;99142.75;4349828;32;34249;-88
2021/08/17 02:04:10;;;;;;;7.80;4.05;;;;;;;20.87;65.38;99149.75;4349598;32;33770;-89
2021/08/17 02:06:37;;;;;;;6.12;4.47;;;;;;;21.01;64.32;99142.91;4337276;32;33311;-89
2021/08/17 02:09:04;;;;;;;8.60;4.72;;;;;;;21.11;65.18;99149.47;4361639;32;34979;-88
2021/08/17 02:11:32;;;;;;;7.75;4.32;;;;;;;21.05;64.67;99155.06;4349053;32;34821;-88
2021/08/17 02:14:00;;;;;;;8.13;4.30;;;;;;;21.05;64.47;99157.69;4361728;32;33259;-88
2021/08/17 02:16:27;;;;;;;6.90;4.55;;;;;;;21.09;64.13;99159.22;4362753;32;34085;-88
2021/08/17 02:18:55;;;;;;;9.07;4.15;;;;;;;20.99;64.70;99179.97;4361591;32;34301;-88
2021/08/17 02:21:22;;;;;;;6.22;4.22;;;;;;;21.03;64.39;99180.69;4349347;32;34263;-87
2021/08/17 02:23:50;;;;;;;8.30;4.12;;;;;;;21.25;63.83;99194.53;4348995;32;32898;-89
2021/08/17 02:26:18;;;;;;;6.05;4.32;;;;;;;21.00;64.59;99209.91;4362808;32;34298;-88
2021/08/17 02:28:45;;;;;;;8.27;4.82;;;;;;;20.59;65.52;99215.53;4349199;32;34435;-88
2021/08/17 02:31:12;;;;;;;9.23;4.37;;;;;;;20.81;65.13;99215.31;4361633;32;34659;-88
2021/08/17 02:33:40;;;;;;;6.93;4.93;;;;;;;20.82;65.24;99227.59;4363174;32;33245;-88
2021/08/17 02:36:08;;;;;;;9.40;4.95;;;;;;;20.72;65.14;99227.19;4362816;32;34762;-88
2021/08/17 02:38:35;;;;;;;7.37;4.37;;;;;;;20.62;65.16;99252.38;4349166;32;34137;-88
2021/08/17 02:41:03;;;;;;;6.30;4.32;;;;;;;20.88;65.23;99259.84;4361530;32;33555;-89
2021/08/17 02:43:31;;;;;;;9.65;4.60;;;;;;;20.93;64.40;99281.62;4349272;32;33749;-89
2021/08/17 02:45:58;;;;;;;7.32;4.68;;;;;;;20.83;65.04;99304.16;4349485;32;34804;-89
2021/08/17 02:48:26;;;;;;;7.43;4.90;;;;;;;20.73;65.31;99337.25;4349561;32;34894;-89
2021/08/17 02:50:53;;;;;;;8.60;4.78;;;;;;;20.69;65.59;99348.91;4337773;32;33568;-91
2021/08/17 02:53:21;;;;;;;7.78;4.90;;;;;;;20.79;65.08;99333.47;4349398;32;32671;-92
2021/08/17 02:55:49;;;;;;;8.00;4.00;;;;;;;20.73;64.61;99302.88;4336964;32;34316;-90
2021/08/17 02:58:16;;;;;;;8.35;4.15;;;;;;;20.63;63.84;99317.50;4336840;32;34159;-89
2021/08/17 03:00:44;;;;;;;10.00;4.47;;;;;;;20.57;64.36;99345.97;4349323;32;33893;-89
2021/08/17 03:03:13;;;;;;;5.65;3.80;;;;;;;20.43;65.13;99332.56;4361440;32;33577;-89
2021/08/17 03:05:40;;;;;;;7.55;4.40;;;;;;;20.58;64.45;99335.34;4348829;32;33341;-88
2021/08/17 03:08:08;;;;;;;8.77;4.20;;;;;;;20.64;62.38;99327.12;4348894;32;33934;-89
2021/08/17 03:10:37;;;;;;;7.80;3.80;;;;;;;20.50;64.06;99321.66;4349058;32;34125;-89
2021/08/17 03:13:06;;;;;;;8.02;3.83;;;;;;;20.49;63.46;99313.81;4348638;32;32888;-88
2021/08/17 03:15:34;;;;;;;7.00;3.60;;;;;;;20.50;63.65;99318.16;4348938;32;33219;-89
2021/08/17 03:18:03;;;;;;;7.03;3.85;;;;;;;20.71;63.41;99341.75;4348868;32;34922;-90
2021/08/17 03:20:32;;;;;;;5.97;3.75;;;;;;;20.86;62.40;99356.88;4349074;32;33341;-89
2021/08/17 03:23:00;;;;;;;6.85;4.32;;;;;;;20.70;63.06;99377.06;4362004;32;33480;-89
2021/08/17 03:25:28;;;;;;;7.18;4.03;;;;;;;20.54;64.05;99405.09;4348752;32;33405;-88
2021/08/17 03:27:56;;;;;;;6.45;4.05;;;;;;;20.32;65.06;99440.50;4361246;32;34341;-89
2021/08/17 03:30:25;;;;;;;9.10;4.95;;;;;;;20.58;64.31;99462.19;4336680;32;34382;-89
2021/08/17 03:32:53;;;;;;;9.23;4.22;;;;;;;20.46;65.35;99446.88;4348883;32;33596;-90
2021/08/17 03:35:21;;;;;;;7.70;4.15;;;;;;;20.32;65.36;99419.38;4336629;32;34461;-89
2021/08/17 03:37:49;;;;;;;5.78;4.10;;;;;;;20.15;65.83;99406.91;4348719;32;34162;-90
2021/08/17 03:40:19;;;;;;;7.95;4.30;;;;;;;20.28;65.20;99388.78;4348909;32;33419;-90
2021/08/17 03:42:47;;;;;;;8.00;3.90;;;;;;;20.38;64.92;99380.34;4348780;32;33479;-89
2021/08/17 03:45:17;;;;;;;9.85;4.70;;;;;;;20.78;63.83;99342.31;4348998;32;34338;-89
2021/08/17 03:47:46;;;;;;;8.00;4.60;;;;;;;20.85;63.41;99334.00;4349126;32;35484;-89
2021/08/17 03:50:14;;;;;;;6.55;3.70;;;;;;;20.90;63.13;99345.22;4348939;32;33673;-90
2021/08/17 03:52:42;;;;;;;5.20;3.83;;;;;;;20.55;63.45;99326.72;4361036;32;34211;-89
2021/08/17 03:55:11;;;;;;;8.57;3.83;;;;;;;20.72;63.14;99322.34;4348915;32;33694;-89
2021/08/17 03:57:39;;;;;;;5.45;3.62;;;;;;;20.90;63.12;99326.72;4348318;32;34241;-90
2021/08/17 04:00:09;;;;;;;6.57;3.83;;;;;;;20.97;63.00;99298.16;4348584;32;34039;-89
2021/08/17 04:02:38;;;;;;;6.05;3.72;;;;;;;21.08;63.15;99324.97;4361114;32;33421;-92
2021/08/17 04:05:06;;;;;;;6.62;3.75;;;;;;;20.88;63.01;99331.22;4348661;32;34261;-92
2021/08/17 04:07:34;;;;;;;9.23;3.80;;;;;;;21.01;62.86;99344.69;4336611;32;34229;-90
2021/08/17 04:10:02;;;;;;;5.10;3.50;;;;;;;20.97;62.49;99347.56;4348497;32;34179;-88
2021/08/17 04:12:30;;;;;;;5.45;3.72;;;;;;;20.99;62.48;99356.28;4348221;32;32847;-91
2021/08/17 04:14:58;;;;;;;11.20;3.75;;;;;;;20.80;63.59;99388.88;4348410;32;34202;-93
2021/08/17 04:17:25;;;;;;;6.68;4.00;;;;;;;20.70;64.13;99434.31;4348600;32;34974;-91
2021/08/17 04:19:53;;;;;;;6.97;4.30;;;;;;;20.74;64.70;99463.19;4336170;32;33466;-91
2021/08/17 04:22:20;;;;;;;5.68;3.50;;;;;;;20.69;64.88;99444.03;4336341;32;32809;-90
2021/08/17 04:24:48;;;;;;;7.72;4.45;;;;;;;20.68;64.68;99441.47;4348817;32;33266;-93
2021/08/17 04:27:16;;;;;;;5.10;3.70;;;;;;;20.63;65.21;99423.19;4349019;32;33963;-93
2021/08/17 04:29:44;;;;;;;6.60;3.72;;;;;;;20.96;65.19;99417.22;4349269;32;33384;-92
2021/08/17 04:32:12;;;;;;;7.20;4.18;;;;;;;21.01;65.45;99408.16;4349839;32;33320;-93
2021/08/17 04:35:07;;;;;;;6.25;4.12;;;;;;;21.03;65.54;99398.34;4319697;33;33326;-93
2021/08/17 04:37:47;;;;;;;8.52;4.57;;;;;;;21.03;65.92;99406.28;4308044;33;34164;-92
2021/08/17 04:40:16;;;;;;;6.05;3.72;;;;;;;20.76;66.40;99405.81;4308991;33;33508;-91
2021/08/17 04:42:43;;;;;;;6.93;3.47;;;;;;;20.92;66.18;99425.28;4321545;33;33249;-93
2021/08/17 04:45:41;;;;;;;6.75;3.90;;;;;;;20.57;66.91;99428.75;4339233;33;34246;-93
2021/08/17 04:48:09;;;;;;;5.78;4.28;;;;;;;20.61;67.28;99430.31;4324792;33;33985;-91
2021/08/17 04:50:36;;;;;;;8.35;3.97;;;;;;;20.80;66.71;99444.37;4348459;33;34956;-89
2021/08/17 04:53:04;;;;;;;7.00;4.18;;;;;;;20.50;67.35;99459.03;4324287;33;33698;-92
2021/08/17 04:55:31;;;;;;;6.57;3.92;;;;;;;20.39;68.26;99485.06;4336821;33;33041;-96
2021/08/17 04:58:00;;;;;;;6.37;4.10;;;;;;;20.49;67.65;99475.78;4335529;33;35468;-94
2021/08/17 05:00:29;;;;;;;7.07;4.15;;;;;;;20.54;67.68;99479.06;4335572;33;34176;-89
2021/08/17 05:02:57;;;;;;;7.00;3.67;;;;;;;20.29;68.34;99496.09;4335600;33;33432;-90
2021/08/17 05:05:25;;;;;;;5.07;3.58;;;;;;;20.28;67.64;99495.25;4322661;33;33410;-91
2021/08/17 05:07:53;;;;;;;8.75;4.30;;;;;;;20.23;68.27;99513.06;4322923;33;34922;-89
2021/08/17 05:10:22;;;;;;;7.10;4.05;;;;;;;20.34;68.11;99515.25;4334965;33;33554;-90
2021/08/17 05:12:50;;;;;;;8.23;4.43;;;;;;;20.41;67.87;99504.34;4335098;33;33468;-90
2021/08/17 05:15:17;;;;;;;5.53;3.85;;;;;;;20.52;67.58;99480.94;4335314;33;34030;-90
2021/08/17 05:17:46;;;;;;;6.35;4.60;;;;;;;20.32;67.64;99491.56;4334937;33;34699;-88
2021/08/17 05:20:14;;;;;;;7.45;4.18;;;;;;;20.60;66.95;99470.03;4335100;33;34108;-92
2021/08/17 05:22:45;;;;;;;7.65;4.07;;;;;;;20.74;65.96;99439.38;4323539;33;33124;-92
2021/08/17 05:25:13;;;;;;;8.00;4.35;;;;;;;20.67;66.25;99456.47;4335015;33;33407;-91
2021/08/17 05:27:41;;;;;;;5.62;4.37;;;;;;;20.75;66.57;99412.00;4335364;33;34930;-90
2021/08/17 05:30:09;;;;;;;6.80;3.80;;;;;;;20.30;67.63;99318.25;4335207;33;33845;-92
2021/08/17 05:32:37;;;;;;;6.53;4.45;;;;;;;20.44;67.66;99368.63;4322746;33;33722;-90
2021/08/17 05:35:06;;;;;;;9.30;4.32;;;;;;;20.46;67.18;99356.22;4334830;33;33621;-91
2021/08/17 05:37:33;;;;;;;6.12;3.70;;;;;;;20.44;67.46;99348.38;4347408;33;34984;-95
2021/08/17 05:40:01;;;;;;;5.62;3.65;;;;;;;20.27;67.50;99364.12;4335153;33;33851;-91
2021/08/17 05:42:30;;;;;;;6.05;3.80;;;;;;;20.43;67.05;99365.12;4335881;33;34153;-91
2021/08/17 05:44:59;;;;;;;5.97;4.05;;;;;;;20.48;67.84;99370.19;4346335;32;33488;-90
2021/08/17 05:47:27;;;;;;;7.55;4.10;;;;;;;20.52;67.98;99379.69;4350538;32;35017;-95
2021/08/17 05:49:55;;;;;;;6.07;4.28;;;;;;;20.40;67.96;99385.53;4350259;32;33763;-89
2021/08/17 05:52:22;;;;;;;5.70;3.83;;;;;;;20.23;68.84;99402.16;4351157;32;33463;-90
2021/08/17 05:54:50;;;;;;;6.10;3.55;;;;;;;20.52;66.80;99411.38;4350136;32;34003;-96
2021/08/17 05:57:57;;;;;;;5.15;3.47;;;;;;;20.49;67.80;99427.41;4349437;33;34241;-96
2021/08/17 06:00:26;;;;;;;8.65;3.45;;;;;;;20.62;66.89;99442.59;4347238;33;33699;-90
2021/08/17 06:02:54;;;;;;;5.72;3.47;;;;;;;20.77;65.77;99457.75;4334830;33;32963;-90
2021/08/17 06:05:22;;;;;;;4.10;3.40;;;;;;;20.67;65.35;99479.38;4335077;33;34826;-91
2021/08/17 06:07:50;;;;;;;5.22;3.90;;;;;;;20.57;66.46;99500.09;4335349;33;34140;-89
2021/08/17 06:10:19;;;;;;;4.75;3.83;;;;;;;20.39;66.78;99524.69;4334905;33;34003;-89
2021/08/17 06:12:47;;;;;;;7.15;3.65;;;;;;;20.46;66.22;99528.78;4334990;33;33149;-90
2021/08/17 06:15:15;;;;;;;6.30;3.53;;;;;;;20.57;66.49;99538.84;4322866;33;33230;-89
2021/08/17 06:17:43;;;;;;;9.00;3.85;;;;;;;20.69;65.91;99546.22;4347519;33;34636;-94
2021/08/17 06:20:19;;;;;;;5.03;3.75;;;;;;;20.73;65.51;99553.94;4323487;33;34163;-89
2021/08/17 06:22:46;;;;;;;5.47;3.10;;;;;;;20.90;65.18;99558.47;4334694;33;32931;-89
2021/08/17 06:25:14;;;;;;;6.62;3.70;;;;;;;20.98;64.25;99569.56;4334542;33;33875;-89
2021/08/17 06:27:41;;;;;;;6.35;3.42;;;;;;;20.82;64.77;99550.87;4334732;33;33994;-89
2021/08/17 06:30:09;;;;;;;4.32;3.10;;;;;;;21.03;64.44;99553.47;4346740;33;34947;-88
2021/08/17 06:32:55;;;;;;;7.72;3.33;;;;;;;21.05;63.78;99559.59;4347410;33;33521;-89
2021/08/17 06:35:23;;;;;;;5.05;3.17;;;;;;;21.08;63.53;99572.66;4322714;33;35252;-90
2021/08/17 06:37:51;;;;;;;4.85;2.97;;;;;;;20.97;64.94;99581.03;4334532;33;34490;-89
2021/08/17 06:40:20;;;;;;;5.90;3.12;;;;;;;21.04;63.08;99598.34;4334376;33;34239;-89
2021/08/17 06:42:48;;;;;;;5.07;3.10;;;;;;;21.04;63.84;99594.88;4346685;33;34221;-89
2021/08/17 06:45:15;;;;;;;5.32;3.37;;;;;;;21.17;63.44;99591.63;4346948;33;34032;-89
2021/08/17 06:47:45;;;;;;;5.95;2.85;;;;;;;20.97;63.45;99598.72;4322495;33;34885;-90
2021/08/17 06:50:33;;;;;;;4.75;2.83;;;;;;;21.06;63.88;99598.34;4326663;33;35234;-89
2021/08/17 06:53:00;;;;;;;4.45;3.17;;;;;;;21.15;63.33;99600.53;4322406;33;33318;-90
2021/08/17 06:55:28;;;;;;;4.32;2.95;;;;;;;20.89;64.25;99614.94;4334252;33;33312;-89
2021/08/17 06:57:56;;;;;;;4.60;3.05;;;;;;;21.17;63.92;99614.56;4322013;33;33977;-89
2021/08/17 07:00:24;;;;;;;3.83;2.72;;;;;;;21.32;62.93;99603.28;4334141;33;34329;-89
2021/08/17 07:02:51;;;;;;;4.47;2.87;;;;;;;21.26;62.95;99587.66;4334419;33;33669;-88
2021/08/17 07:05:30;;;;;;;6.05;2.80;;;;;;;20.98;63.20;99598.63;4335603;33;34781;-88
2021/08/17 07:07:57;;;;;;;7.10;3.22;;;;;;;21.25;62.95;99615.91;4346431;33;34923;-85
2021/08/17 07:10:26;;;;;;;4.45;3.45;;;;;;;21.10;62.53;99624.56;4346593;33;34074;-94
2021/08/17 07:13:16;;;;;;;7.82;3.37;;;;;;;21.21;62.15;99626.69;4346608;33;33468;-95
2021/08/17 07:15:44;;;;;;;5.22;2.80;;;;;;;20.97;63.58;99617.22;4322524;33;34092;-90
2021/08/17 07:18:12;;;;;;;5.57;3.53;;;;;;;20.84;62.78;99612.50;4345904;33;34173;-86
2021/08/17 07:20:40;;;;;;;5.68;2.80;;;;;;;20.73;64.08;99613.88;4346835;33;34527;-87
2021/08/17 07:23:08;;;;;;;3.47;2.50;;;;;;;20.87;63.55;99612.31;4321893;33;33862;-88
2021/08/17 07:25:35;;;;;;;4.18;2.85;;;;;;;20.75;63.70;99612.87;4322005;33;33405;-84
2021/08/17 07:28:04;;;;;;;4.30;2.80;;;;;;;20.76;64.40;99600.53;4347031;33;34815;-86
2021/08/17 07:30:32;;;;;;;6.22;2.75;;;;;;;20.94;64.17;99611.13;4322057;33;33563;-85
2021/08/17 07:33:00;;;;;;;3.65;2.78;;;;;;;20.96;62.77;99620.78;4334178;33;33390;-85
2021/08/17 07:35:31;;;;;;;5.32;3.00;;;;;;;20.98;64.20;99626.84;4346318;33;34008;-90
2021/08/17 07:38:00;;;;;;;5.35;2.92;;;;;;;21.03;63.44;99619.59;4333754;33;35033;-91
2021/08/17 07:40:28;;;;;;;4.65;3.03;;;;;;;21.24;62.66;99631.84;4322281;33;34963;-92
2021/08/17 07:42:55;;;;;;;4.28;2.95;;;;;;;21.20;63.16;99646.16;4334715;33;34245;-89
2021/08/17 07:45:24;;;;;;;4.43;2.70;;;;;;;20.89;63.87;99658.06;4335255;33;33478;-87
2021/08/17 07:48:11;;;;;;;4.43;2.85;;;;;;;21.05;63.45;99652.13;4344783;33;34316;-89
2021/08/17 07:50:39;;;;;;;4.75;3.08;;;;;;;21.08;63.67;99658.16;4345755;33;33712;-88
2021/08/17 07:53:07;;;;;;;5.40;2.58;;;;;;;21.09;63.57;99664.28;4351322;33;33860;-88
2021/08/17 07:55:36;;;;;;;3.40;2.70;;;;;;;21.01;64.70;99666.37;4345427;33;34710;-90
2021/08/17 07:58:04;;;;;;;5.65;3.00;;;;;;;20.79;63.97;99667.34;4321462;33;34878;-90
2021/08/17 08:00:31;;;;;;;5.82;2.42;;;;;;;20.87;63.77;99675.78;4321365;33;33621;-87
2021/08/17 08:02:59;;;;;;;8.30;3.10;;;;;;;21.13;63.16;99671.16;4334609;33;33546;-90
2021/08/17 08:05:27;;;;;;;5.20;2.97;;;;;;;21.07;63.85;99676.72;4333679;33;34674;-87
2021/08/17 08:07:55;;;;;;;5.70;2.30;;;;;;;21.22;63.76;99691.91;4345588;33;33900;-87
2021/08/17 08:10:23;;;;;;;3.62;2.15;;;;;;;20.81;64.08;99697.19;4333589;33;33639;-92
2021/08/17 08:12:50;;;;;;;2.67;1.90;;;;;;;21.03;63.54;99694.47;4345882;33;33590;-87
2021/08/17 08:15:18;;;;;;;2.95;1.95;;;;;;;21.10;62.72;99684.50;4345164;33;33372;-88
2021/08/17 08:17:46;;;;;;;3.15;1.87;;;;;;;21.13;63.37;99681.75;4333343;33;35512;-89
2021/08/17 08:20:14;;;;;;;3.10;1.80;;;;;;;21.24;63.15;99695.34;4346909;33;34268;-87
2021/08/17 08:22:42;;;;;;;3.62;1.75;;;;;;;21.16;62.71;99692.16;4334111;33;34291;-87
2021/08/17 08:25:10;;;;;;;4.30;1.95;;;;;;;21.30;61.58;99695.06;4333985;33;33971;-87
2021/08/17 08:27:38;;;;;;;4.72;1.87;;;;;;;21.59;60.92;99692.78;4333641;33;34536;-87
2021/08/17 08:30:06;;;;;;;4.75;1.70;;;;;;;21.66;61.46;99722.47;4333575;33;34568;-87
2021/08/17 08:32:35;;;;;;;3.62;1.40;;;;;;;21.41;61.15;99729.81;4333894;33;34336;-87
2021/08/17 08:35:06;;;;;;;2.87;1.30;;;;;;;21.37;60.87;99730.91;4346879;33;34104;-87
2021/08/17 08:37:34;;;;;;;1.40;0.95;;;;;;;21.53;58.32;99739.84;4347003;33;35382;-88
2021/08/17 08:40:07;;;;;;;1.80;0.90;;;;;;;21.24;57.47;99757.03;4333270;33;34514;-89
2021/08/17 08:42:35;;;;;;;1.20;0.80;;;;;;;21.13;56.79;99753.16;4346003;33;33606;-87
2021/08/17 08:45:05;;;;;;;2.45;0.77;;;;;;;20.94;56.18;99751.25;4321423;33;33922;-87
2021/08/17 08:47:34;;;;;;;1.42;0.82;;;;;;;21.04;56.22;99750.88;4321356;33;35512;-94
2021/08/17 08:50:03;;;;;;;1.67;0.68;;;;;;;21.35;54.77;99741.53;4322991;33;34832;-96
2021/08/17 08:52:39;;;;;;;6.55;1.10;;;;;;;21.29;58.80;99730.38;4315951;33;32794;-96
2021/08/17 08:55:35;;;;;;;3.25;1.05;;;;;;;21.33;55.80;99737.22;4350778;32;34003;-96
2021/08/17 08:58:48;;;;;;;4.43;1.30;;;;;;;21.55;53.92;99761.81;4366709;32;34503;-96
2021/08/17 09:02:08;;;;;;;3.50;1.10;;;;;;;21.40;54.03;99758.06;4382354;27;20123;-96
2021/08/17 09:05:07;;;;;;;3.25;0.95;;;;;;;21.48;52.37;99757.72;4332281;33;33988;-96
2021/08/17 09:07:52;;;;;;;8.00;1.92;;;;;;;21.77;50.47;99759.91;4345889;32;34240;-96
2021/08/17 09:14:31;;;;;;;3.40;1.50;;;;;;;21.72;50.40;99759.25;4356193;33;35154;-96
2021/08/17 09:17:26;;;;;;;7.75;1.10;;;;;;;21.89;51.58;99751.44;4326657;33;33885;-96
2021/08/17 09:20:13;;;;;;;1.73;0.80;;;;;;;21.96;51.03;99762.59;4312950;33;34143;-94
2021/08/17 09:22:45;;;;;;;6.40;0.90;;;;;;;21.89;50.74;99764.66;4312755;33;35255;-95
2021/08/17 09:25:42;;;;;;;2.62;0.88;;;;;;;21.98;49.43;99768.66;4331378;33;33497;-94
2021/08/17 09:28:39;;;;;;;4.55;1.00;;;;;;;21.80;50.36;99769.50;4315592;33;32781;-96
2021/08/17 09:31:53;;;;;;;6.47;0.70;;;;;;;21.73;51.25;99776.84;4463885;27;20169;-96
2021/08/17 09:34:40;;;;;;;4.68;1.25;;;;;;;21.58;46.55;99774.91;4292867;33;35706;-96
2021/08/17 09:37:33;;;;;;;4.25;1.00;;;;;;;21.56;47.95;99777.59;4265566;33;34650;-95
2021/08/17 09:40:30;;;;;;;2.22;0.90;;;;;;;21.26;49.22;99783.41;4300848;33;33864;-94
2021/08/17 09:43:40;;;;;;;3.20;0.90;;;;;;;21.45;50.43;99779.03;4304526;33;33538;-94
2021/08/17 09:46:40;;;;;;;5.47;0.98;;;;;;;21.45;49.30;99773.72;4300870;33;34853;-92
2021/08/17 09:49:26;;;;;;;3.10;1.20;;;;;;;21.60;47.60;99773.06;4330769;33;33543;-94
2021/08/17 09:52:33;;;;;;;2.33;1.10;;;;;;;21.43;47.64;99775.59;4313703;33;33648;-94
2021/08/17 09:55:27;;;;;;;1.98;0.95;;;;;;;21.42;47.19;99789.72;4330191;32;32964;-93
2021/08/17 09:58:40;;;;;;;2.42;0.98;;;;;;;21.56;46.78;99796.13;4325041;33;34208;-93
2021/08/17 10:01:12;;;;;;;1.77;0.90;;;;;;;21.63;43.25;99794.09;4311021;33;33117;-93
2021/08/17 10:04:07;;;;;;;4.85;1.00;;;;;;;21.72;42.45;99804.25;4310436;33;32908;-94
2021/08/17 10:06:49;;;;;;;2.87;1.27;;;;;;;21.56;44.30;99808.53;4316806;33;33242;-91
2021/08/17 10:09:18;;;;;;;5.37;1.30;;;;;;;21.39;44.19;99811.06;4323442;33;34072;-94
2021/08/17 10:11:46;;;;;;;2.53;1.25;;;;;;;21.58;45.68;99823.38;4311792;33;33308;-90
2021/08/17 10:14:14;;;;;;;3.60;1.12;;;;;;;21.58;44.99;99823.38;4322643;33;33002;-91
2021/08/17 10:16:44;;;;;;;5.40;1.55;;;;;;;21.55;43.10;99822.69;4323130;33;34266;-90
2021/08/17 10:19:14;;;;;;;3.58;1.33;;;;;;;21.66;43.90;99820.41;4334928;33;35550;-89
2021/08/17 10:21:45;;;;;;;2.90;1.17;;;;;;;21.62;43.55;99824.13;4322486;33;33691;-90
2021/08/17 10:24:26;;;;;;;7.30;1.40;;;;;;;21.78;43.28;99819.84;4322406;33;33990;-89
2021/08/17 10:27:24;;;;;;;3.45;1.20;;;;;;;21.58;44.12;99822.56;4334462;33;33363;-91
2021/08/17 10:30:07;;;;;;;2.30;1.20;;;;;;;22.01;43.34;99822.31;4306228;33;35014;-91
2021/08/17 10:32:35;;;;;;;5.50;1.48;;;;;;;21.98;42.05;99819.84;4334816;33;33345;-89
2021/08/17 10:35:04;;;;;;;3.53;1.42;;;;;;;21.81;41.84;99814.41;4310556;33;32648;-91
2021/08/17 10:37:32;;;;;;;7.90;1.33;;;;;;;21.89;41.04;99807.03;4323696;33;33874;-92
2021/08/17 10:40:15;;;;;;;3.00;1.45;;;;;;;21.54;43.31;99798.00;4324402;33;34272;-91
2021/08/17 10:42:51;;;;;;;3.80;1.25;;;;;;;21.90;40.76;99802.56;4323161;33;34312;-90
2021/08/17 10:45:25;;;;;;;4.05;1.37;;;;;;;22.06;41.25;99799.12;4334976;33;32446;-92
2021/08/17 10:47:56;;;;;;;4.22;1.30;;;;;;;22.13;42.95;99811.16;4324180;33;33203;-94
2021/08/17 10:50:34;;;;;;;4.28;1.23;;;;;;;22.30;41.40;99798.94;4336499;33;34691;-90
2021/08/17 10:53:40;;;;;;;7.97;1.92;;;;;;;21.88;39.25;99809.72;4334780;33;34753;-91
2021/08/17 10:56:41;;;;;;;4.75;1.50;;;;;;;21.85;38.85;99810.72;4320226;33;32343;-92
2021/08/17 10:59:09;;;;;;;3.62;1.40;;;;;;;22.15;39.93;99825.22;4330971;33;33558;-92
2021/08/17 11:01:49;;;;;;;3.90;1.37;;;;;;;22.03;39.69;99836.38;4323751;33;36020;-93
2021/08/17 11:04:36;;;;;;;3.12;1.35;;;;;;;22.16;39.27;99831.34;4336888;33;34102;-91
2021/08/17 11:07:27;;;;;;;3.28;1.60;;;;;;;22.20;39.53;99844.38;4335724;33;33474;-94
2021/08/17 11:10:04;;;;;;;2.65;1.27;;;;;;;22.18;39.88;99845.38;4320758;33;34353;-92
2021/08/17 11:12:36;;;;;;;3.57;1.17;;;;;;;22.30;38.12;99838.69;4323008;33;33937;-89
2021/08/17 11:15:06;;;;;;;5.80;1.15;;;;;;;22.21;38.93;99838.16;4334153;33;34025;-89
2021/08/17 11:17:35;;;;;;;4.72;1.87;;;;;;;21.83;41.20;99839.03;4322055;33;32814;-89
2021/08/17 11:20:05;;;;;;;3.08;1.00;;;;;;;21.69;37.08;99835.28;4321900;33;33403;-91
2021/08/17 11:22:39;;;;;;;3.30;1.45;;;;;;;21.71;39.08;99844.88;4334493;33;34712;-91
2021/08/17 11:25:08;;;;;;;3.45;1.23;;;;;;;21.84;37.51;99856.69;4322555;33;34282;-93
2021/08/17 11:27:40;;;;;;;1.73;1.10;;;;;;;21.98;37.35;99862.22;4336572;33;34897;-94
2021/08/17 11:30:31;;;;;;;3.78;1.50;;;;;;;22.14;36.89;99865.88;4325367;33;33362;-93
2021/08/17 11:32:58;;;;;;;4.65;1.60;;;;;;;22.19;39.46;99881.56;4347189;33;34781;-92
2021/08/17 11:35:27;;;;;;;4.37;1.83;;;;;;;21.92;39.48;99881.00;4335052;33;34890;-92
2021/08/17 11:37:57;;;;;;;3.65;1.62;;;;;;;21.96;39.39;99887.91;4323724;33;33200;-92
2021/08/17 11:40:25;;;;;;;3.83;1.52;;;;;;;21.80;39.08;99886.81;4335351;33;34140;-92
2021/08/17 11:42:59;;;;;;;3.72;1.42;;;;;;;21.71;41.08;99886.37;4310951;33;34276;-92
2021/08/17 11:45:33;;;;;;;4.60;1.95;;;;;;;21.75;40.34;99888.81;4334811;33;34111;-91
2021/08/17 11:48:01;;;;;;;4.22;1.33;;;;;;;21.54;41.79;99884.47;4334376;33;32827;-91
2021/08/17 11:50:30;;;;;;;3.22;1.20;;;;;;;21.59;39.97;99877.19;4334418;33;34255;-91
2021/08/17 11:53:01;;;;;;;5.00;1.83;;;;;;;21.67;41.50;99875.06;4322979;33;35073;-92
2021/08/17 11:55:31;;;;;;;;;;;;;;;21.82;40.62;99858.47;4335277;33;34250;-92
2021/08/17 11:58:01;;;;;;;4.82;1.70;;;;;;;21.74;41.00;99851.81;4346524;33;33420;-90
2021/08/17 12:00:30;;;;;;;4.80;1.60;;;;;;;21.61;40.90;99862.09;4321996;33;34248;-90